createdAt,value
2022-08-16T00:29:33.026Z,97297.53
2022-08-16T00:59:42.487Z,97286.72
2022-08-16T01:30:20.161Z,97289.13
2022-08-16T02:00:29.338Z,97277.53
2022-08-16T02:30:36.960Z,97272.50
2022-08-16T03:00:50.288Z,97277.56
2022-08-16T03:30:55.301Z,97278.09
2022-08-16T04:00:59.662Z,97295.47
2022-08-16T04:31:03.787Z,97300.22
2022-08-16T05:01:11.470Z,97307.63
2022-08-16T05:31:16.901Z,97339.25
2022-08-16T06:01:21.084Z,97350.56
2022-08-16T06:31:25.714Z,97376.84
2022-08-16T07:01:43.189Z,97390.22
2022-08-16T07:31:50.428Z,97401.59
2022-08-16T08:01:58.003Z,97410.75
2022-08-16T08:32:03.017Z,97417.78
2022-08-16T09:02:27.103Z,97424.03
2022-08-16T09:32:31.453Z,97449.22
2022-08-16T10:02:44.131Z,97439.28
2022-08-16T10:32:48.600Z,97448.25
2022-08-16T11:02:58.872Z,97433.59
2022-08-16T11:33:19.333Z,97439.78
2022-08-16T12:03:34.945Z,97437.59
2022-08-16T12:33:44.758Z,97420.00
2022-08-16T13:03:49.391Z,97422.66
2022-08-16T13:34:00.404Z,97402.13
2022-08-16T14:04:05.339Z,97403.66
2022-08-16T14:34:11.156Z,97399.28
2022-08-16T15:04:32.426Z,97383.94
2022-08-16T15:34:44.631Z,97380.97
2022-08-16T16:04:50.404Z,97389.50
2022-08-16T16:34:58.846Z,97373.09
2022-08-16T17:05:05.918Z,97377.47
2022-08-16T17:35:18.416Z,97373.84
2022-08-16T18:05:23.049Z,97395.59
2022-08-16T18:35:27.241Z,97390.03
2022-08-16T19:05:33.976Z,97413.50
2022-08-16T19:35:41.013Z,97443.19
2022-08-16T20:05:45.852Z,97464.56
2022-08-16T20:35:50.692Z,97489.00
2022-08-16T21:05:57.398Z,97512.69
2022-08-16T21:36:01.470Z,97512.22
2022-08-16T22:06:13.188Z,97516.66
2022-08-16T22:36:18.672Z,97507.31
2022-08-16T23:06:23.570Z,97508.63
2022-08-16T23:36:27.571Z,97495.19
